Time;durP1;ratioP1;P1;durP2;ratioP2;P2;SDS_P1;SDS_P2;PMS_P1;PMS_P2;Temp;Humidity;BMP_temperature;BMP_pressure;BME280_temperature;BME280_humidity;BME280_pressure;Samples;Min_cycle;Max_cycle;Signal;HPM_P1;HPM_P2
2022/03/13 00:02:17;;;;;;;7.67;1.40;;;23.40;99.90;;;;;;4913485;29;20244;-68
2022/03/13 00:04:51;;;;;;;8.13;1.20;;;23.80;99.90;;;;;;4915440;29;20181;-68
2022/03/13 00:07:27;;;;;;;4.27;1.00;;;23.90;99.90;;;;;;4916115;29;20185;-68
2022/03/13 00:09:55;;;;;;;7.80;1.47;;;23.90;99.90;;;;;;4916136;29;20238;-68
2022/03/13 00:12:31;;;;;;;3.70;1.00;;;24.00;99.90;;;;;;4915761;29;20856;-67
2022/03/13 00:15:02;;;;;;;4.03;1.50;;;24.40;99.90;;;;;;4916827;29;20241;-69
2022/03/13 00:17:30;;;;;;;3.33;1.37;;;24.80;99.90;;;;;;4917515;29;20252;-68
2022/03/13 00:20:03;;;;;;;6.00;0.90;;;24.60;99.90;;;;;;4918329;29;20221;-68
2022/03/13 00:22:35;;;;;;;3.33;1.23;;;24.80;99.90;;;;;;4917903;29;20196;-68
2022/03/13 00:25:08;;;;;;;5.70;1.10;;;25.00;99.90;;;;;;4918249;29;20215;-68
2022/03/13 00:27:36;;;;;;;8.07;1.20;;;25.00;99.90;;;;;;4917799;29;20178;-68
2022/03/13 00:30:05;;;;;;;3.53;1.10;;;25.40;99.90;;;;;;4917551;29;20189;-67
2022/03/13 00:32:33;;;;;;;8.80;1.10;;;25.30;99.90;;;;;;4916745;29;20193;-68
2022/03/13 00:35:01;;;;;;;4.40;1.00;;;25.70;99.90;;;;;;4918039;29;20189;-67
2022/03/13 00:37:30;;;;;;;4.40;1.07;;;25.50;99.90;;;;;;4917908;29;20220;-67
2022/03/13 00:39:58;;;;;;;6.67;1.10;;;26.00;99.90;;;;;;4917924;29;20644;-69
2022/03/13 00:42:25;;;;;;;5.87;1.27;;;26.60;99.90;;;;;;4917519;29;20201;-69
2022/03/13 00:44:53;;;;;;;2.33;0.90;;;26.90;99.90;;;;;;4916188;29;20211;-69
2022/03/13 00:47:21;;;;;;;5.63;1.30;;;26.40;99.90;;;;;;4916670;29;20191;-68
2022/03/13 00:49:50;;;;;;;8.97;0.90;;;26.40;99.90;;;;;;4917607;29;20188;-69
2022/03/13 00:52:17;;;;;;;5.07;0.83;;;25.80;99.90;;;;;;4917489;29;20227;-69
2022/03/13 00:54:45;;;;;;;4.93;1.07;;;26.00;99.90;;;;;;4917585;29;20639;-69
2022/03/13 00:57:13;;;;;;;4.23;1.33;;;26.30;99.90;;;;;;4917068;29;20339;-69
2022/03/13 00:59:41;;;;;;;3.33;0.73;;;26.00;99.90;;;;;;4917541;29;20200;-69
2022/03/13 01:02:10;;;;;;;4.70;0.90;;;26.40;99.90;;;;;;4917162;29;20237;-69
2022/03/13 01:04:38;;;;;;;3.43;1.00;;;26.60;99.90;;;;;;4917458;29;20185;-67
2022/03/13 01:07:05;;;;;;;5.47;0.80;;;26.40;99.90;;;;;;4916977;29;20197;-68
2022/03/13 01:09:34;;;;;;;8.20;1.50;;;26.40;99.90;;;;;;4916741;29;20189;-68
2022/03/13 01:12:02;;;;;;;5.77;1.10;;;26.80;99.90;;;;;;4916445;29;20188;-68
2022/03/13 01:14:32;;;;;;;4.37;0.87;;;28.20;99.90;;;;;;4916097;29;20193;-69
2022/03/13 01:17:07;;;;;;;3.53;1.30;;;28.50;99.90;;;;;;4916016;29;20256;-68
2022/03/13 01:19:37;;;;;;;6.13;1.00;;;29.20;99.90;;;;;;4907479;29;20667;-68
2022/03/13 01:22:06;;;;;;;5.20;1.40;;;29.10;99.90;;;;;;4916334;29;20260;-69
2022/03/13 01:24:44;;;;;;;9.73;1.13;;;28.80;99.90;;;;;;4917184;29;20185;-69
2022/03/13 01:27:14;;;;;;;4.87;0.97;;;27.90;99.90;;;;;;4917044;29;20694;-69
2022/03/13 01:29:42;;;;;;;8.10;1.40;;;27.40;99.90;;;;;;4916663;29;20181;-68
2022/03/13 01:32:10;;;;;;;5.57;1.20;;;27.10;99.90;;;;;;4917084;29;20184;-68
2022/03/13 01:34:56;;;;;;;3.60;1.17;;;26.80;99.90;;;;;;4916297;29;20197;-68
2022/03/13 01:37:31;;;;;;;2.67;0.90;;;26.60;99.90;;;;;;4916938;29;20188;-69
2022/03/13 01:40:02;;;;;;;5.20;1.03;;;26.60;99.90;;;;;;4916745;29;20205;-70
2022/03/13 01:42:29;;;;;;;3.53;1.20;;;26.10;99.90;;;;;;4915646;29;20667;-69
2022/03/13 01:44:56;;;;;;;2.60;1.00;;;25.90;99.90;;;;;;4916819;29;20228;-69
2022/03/13 01:47:24;;;;;;;6.27;1.33;;;26.00;99.90;;;;;;4916824;29;20190;-69
2022/03/13 01:49:52;;;;;;;3.67;1.17;;;26.00;99.90;;;;;;4916578;29;20189;-69
2022/03/13 01:52:26;;;;;;;2.63;1.23;;;26.00;99.90;;;;;;4897855;29;20192;-69
2022/03/13 01:54:57;;;;;;;6.07;1.33;;;26.10;99.90;;;;;;4913557;29;20197;-69
2022/03/13 01:57:26;;;;;;;2.07;0.97;;;26.30;99.90;;;;;;4916465;29;20197;-69
2022/03/13 01:59:59;;;;;;;4.23;1.00;;;26.30;99.90;;;;;;4916614;29;20268;-69
2022/03/13 02:02:29;;;;;;;5.93;1.10;;;26.30;99.90;;;;;;4916267;29;20250;-69
2022/03/13 02:04:58;;;;;;;3.40;1.40;;;26.40;99.90;;;;;;4915206;29;20558;-69
2022/03/13 02:07:28;;;;;;;3.23;1.10;;;26.20;99.90;;;;;;4916118;29;20189;-69
2022/03/13 02:09:56;;;;;;;5.13;1.20;;;26.20;99.90;;;;;;4916461;29;20181;-69
2022/03/13 02:12:26;;;;;;;5.33;1.20;;;26.20;99.90;;;;;;4915997;29;20215;-69
2022/03/13 02:14:53;;;;;;;9.13;1.10;;;25.90;99.90;;;;;;4916137;29;20551;-69
2022/03/13 02:17:35;;;;;;;2.07;0.83;;;25.70;99.90;;;;;;4916284;29;20220;-69
2022/03/13 02:20:04;;;;;;;2.97;1.23;;;25.60;99.90;;;;;;4915955;29;20655;-70
2022/03/13 02:22:32;;;;;;;8.57;1.33;;;25.50;99.90;;;;;;4916215;29;20181;-70
2022/03/13 02:25:00;;;;;;;4.33;0.90;;;25.50;99.90;;;;;;4916191;29;20245;-69
2022/03/13 02:27:29;;;;;;;4.77;1.33;;;25.40;99.90;;;;;;4913079;29;20280;-70
2022/03/13 02:29:57;;;;;;;6.20;1.07;;;25.50;99.90;;;;;;4915990;29;20189;-72
2022/03/13 02:32:24;;;;;;;4.17;1.30;;;25.50;99.90;;;;;;4914295;29;20637;-70
2022/03/13 02:34:56;;;;;;;5.67;1.10;;;25.40;99.90;;;;;;4915867;29;20192;-71
2022/03/13 02:37:40;;;;;;;3.17;1.07;;;25.20;99.90;;;;;;4914746;29;20617;-70
2022/03/13 02:40:15;;;;;;;6.23;1.10;;;25.40;99.90;;;;;;4915961;29;20340;-72
2022/03/13 02:42:43;;;;;;;5.33;0.93;;;25.20;99.90;;;;;;4915763;29;20173;-69
2022/03/13 02:45:11;;;;;;;6.93;1.40;;;25.00;99.90;;;;;;4915773;29;20349;-71
2022/03/13 02:47:38;;;;;;;4.77;1.23;;;25.10;99.90;;;;;;4928594;28;20177;-68
2022/03/13 02:50:06;;;;;;;3.83;1.13;;;25.40;99.90;;;;;;4938922;29;20188;-72
2022/03/13 02:52:33;;;;;;;6.20;1.17;;;25.50;99.90;;;;;;4917142;29;20189;-72
2022/03/13 02:55:01;;;;;;;3.27;1.00;;;25.50;99.90;;;;;;4920507;28;20553;-71
2022/03/13 02:57:28;;;;;;;4.43;1.20;;;25.00;99.90;;;;;;4919003;29;20659;-70
2022/03/13 02:59:55;;;;;;;3.93;1.10;;;24.80;99.90;;;;;;4926715;29;20177;-69
2022/03/13 03:02:23;;;;;;;1.30;0.87;;;24.60;99.90;;;;;;4921682;29;20247;-70
2022/03/13 03:04:53;;;;;;;2.27;1.00;;;24.60;99.90;;;;;;4919421;29;20197;-70
2022/03/13 03:07:21;;;;;;;4.67;1.47;;;24.70;99.90;;;;;;4918213;29;20197;-70
2022/03/13 03:09:48;;;;;;;2.53;1.10;;;24.80;99.90;;;;;;4920206;29;20211;-70
2022/03/13 03:12:15;;;;;;;4.27;1.73;;;24.80;99.90;;;;;;4921166;29;20185;-70
2022/03/13 03:14:43;;;;;;;7.00;1.60;;;25.20;99.90;;;;;;4916537;29;20687;-70
2022/03/13 03:17:10;;;;;;;7.87;1.70;;;25.60;99.90;;;;;;4917512;29;20657;-70
2022/03/13 03:19:38;;;;;;;9.40;1.67;;;25.50;99.90;;;;;;4916913;29;20173;-69
2022/03/13 03:22:07;;;;;;;3.97;1.60;;;25.50;99.90;;;;;;4916786;29;20244;-70
2022/03/13 03:24:34;;;;;;;3.63;1.13;;;25.40;99.90;;;;;;4915877;29;20185;-71
2022/03/13 03:27:01;;;;;;;4.43;1.27;;;25.20;99.90;;;;;;4915734;29;20284;-71
2022/03/13 03:29:30;;;;;;;2.87;1.13;;;25.40;99.90;;;;;;4915413;29;20271;-69
2022/03/13 03:31:58;;;;;;;3.10;1.70;;;26.00;99.90;;;;;;4915583;29;20186;-70
2022/03/13 03:34:27;;;;;;;7.57;1.50;;;26.00;99.90;;;;;;4915056;29;20184;-69
2022/03/13 03:37:00;;;;;;;6.67;1.40;;;26.00;99.90;;;;;;4915263;29;20200;-70
2022/03/13 03:39:30;;;;;;;2.80;0.87;;;26.10;99.90;;;;;;4917679;29;20177;-71
2022/03/13 03:41:58;;;;;;;5.03;0.83;;;26.10;99.90;;;;;;4918831;29;20268;-70
2022/03/13 03:44:25;;;;;;;4.57;0.90;;;25.90;99.90;;;;;;4918941;29;20598;-71
2022/03/13 03:46:54;;;;;;;1.90;0.63;;;26.10;99.90;;;;;;4918906;29;20682;-71
2022/03/13 03:49:22;;;;;;;1.67;0.70;;;26.10;99.90;;;;;;4918984;29;20177;-69
2022/03/13 03:51:50;;;;;;;2.70;0.90;;;26.20;99.90;;;;;;4919058;29;20189;-70
2022/03/13 03:54:17;;;;;;;2.60;0.80;;;26.30;99.90;;;;;;4918575;29;20221;-71
2022/03/13 03:56:45;;;;;;;1.70;0.80;;;26.30;99.90;;;;;;4918816;29;20237;-71
2022/03/13 03:59:12;;;;;;;3.33;0.90;;;25.60;99.90;;;;;;4918817;29;20208;-69
2022/03/13 04:01:42;;;;;;;3.47;1.07;;;25.30;99.90;;;;;;4918107;29;20233;-70
2022/03/13 04:04:10;;;;;;;2.50;0.73;;;25.20;99.90;;;;;;4918480;29;20643;-71
2022/03/13 04:06:38;;;;;;;3.13;0.93;;;26.00;99.90;;;;;;4918431;29;20310;-71
2022/03/13 04:09:10;;;;;;;3.47;1.03;;;26.30;99.90;;;;;;4918739;29;20240;-71
2022/03/13 04:11:40;;;;;;;4.03;0.80;;;26.10;99.90;;;;;;4918547;29;20185;-71
2022/03/13 04:14:10;;;;;;;3.00;0.97;;;25.60;99.90;;;;;;4917054;29;20181;-71
2022/03/13 04:16:38;;;;;;;0.90;0.40;;;25.30;99.90;;;;;;4918416;29;20200;-71
2022/03/13 04:19:05;;;;;;;3.90;0.93;;;25.00;99.90;;;;;;4917870;29;20178;-70
2022/03/13 04:21:33;;;;;;;4.93;0.80;;;25.10;99.90;;;;;;4918227;29;20182;-70
2022/03/13 04:24:00;;;;;;;1.93;0.90;;;24.50;99.90;;;;;;4918356;29;20598;-72
2022/03/13 04:26:28;;;;;;;3.50;1.03;;;24.40;99.90;;;;;;4917984;29;20311;-70
2022/03/13 04:28:55;;;;;;;9.73;1.30;;;24.80;99.90;;;;;;4918729;29;20217;-69
2022/03/13 04:31:24;;;;;;;4.90;1.33;;;25.60;99.90;;;;;;4914638;29;20189;-70
2022/03/13 04:33:51;;;;;;;4.90;1.30;;;26.00;99.90;;;;;;4908624;29;20189;-69
2022/03/13 04:36:24;;;;;;;5.57;1.10;;;25.70;99.90;;;;;;4917950;29;20192;-71
2022/03/13 04:38:51;;;;;;;3.77;1.77;;;25.90;99.90;;;;;;4917935;29;20658;-70
2022/03/13 04:41:20;;;;;;;2.83;0.90;;;26.40;99.90;;;;;;4917909;29;20317;-69
2022/03/13 04:43:47;;;;;;;3.27;0.90;;;26.80;99.90;;;;;;4917806;29;20189;-69
2022/03/13 04:46:15;;;;;;;1.60;0.90;;;26.90;99.90;;;;;;4917769;29;20217;-69
2022/03/13 04:48:43;;;;;;;2.23;0.90;;;27.30;99.90;;;;;;4915691;29;20200;-68
2022/03/13 04:51:11;;;;;;;2.17;0.80;;;27.30;99.90;;;;;;4916583;29;20643;-67
2022/03/13 04:53:38;;;;;;;4.23;0.70;;;27.00;99.90;;;;;;4917623;29;20193;-69
2022/03/13 04:56:06;;;;;;;3.03;0.80;;;27.00;99.90;;;;;;4917780;29;20181;-69
2022/03/13 04:58:33;;;;;;;3.60;0.70;;;26.80;99.90;;;;;;4917746;29;20185;-70
2022/03/13 05:01:01;;;;;;;3.13;0.77;;;26.60;99.90;;;;;;4917416;29;20372;-72
2022/03/13 05:03:31;;;;;;;2.60;0.77;;;26.40;99.90;;;;;;4917584;29;20260;-67
2022/03/13 05:05:59;;;;;;;4.77;1.00;;;26.40;99.90;;;;;;4917659;29;20213;-69
2022/03/13 05:08:27;;;;;;;5.87;1.37;;;26.40;99.90;;;;;;4917322;29;20181;-68
2022/03/13 05:10:54;;;;;;;4.53;0.97;;;26.30;99.90;;;;;;4917415;29;20245;-68
2022/03/13 05:13:23;;;;;;;2.87;1.03;;;26.80;99.90;;;;;;4917285;29;20182;-69
2022/03/13 05:15:52;;;;;;;4.87;1.20;;;26.70;99.90;;;;;;4917437;29;20237;-68
2022/03/13 05:18:20;;;;;;;1.63;0.73;;;26.40;99.90;;;;;;4917194;29;20181;-69
2022/03/13 05:20:47;;;;;;;5.73;1.00;;;26.70;99.90;;;;;;4917296;29;20623;-67
2022/03/13 05:23:15;;;;;;;1.00;0.50;;;26.80;99.90;;;;;;4917124;29;20360;-68
2022/03/13 05:25:42;;;;;;;1.33;0.70;;;26.80;99.90;;;;;;4917113;29;20225;-68
2022/03/13 05:28:10;;;;;;;1.23;0.60;;;26.90;99.90;;;;;;4917171;29;20552;-69
2022/03/13 05:30:38;;;;;;;3.13;0.90;;;26.60;99.90;;;;;;4916938;29;20196;-69
2022/03/13 05:33:07;;;;;;;2.70;0.70;;;26.70;99.90;;;;;;4916981;29;20177;-69
2022/03/13 05:35:34;;;;;;;8.00;1.77;;;26.40;99.90;;;;;;4916970;29;20178;-69
2022/03/13 05:38:02;;;;;;;4.87;1.10;;;26.60;99.90;;;;;;4916982;29;20178;-70
2022/03/13 05:40:30;;;;;;;1.70;0.87;;;26.50;99.90;;;;;;4915602;29;20196;-69
2022/03/13 05:42:58;;;;;;;4.13;0.90;;;26.20;99.90;;;;;;4916831;29;20239;-68
2022/03/13 05:45:28;;;;;;;2.77;0.90;;;26.00;99.90;;;;;;4916717;29;20248;-70
2022/03/13 05:48:01;;;;;;;3.97;1.03;;;26.00;99.90;;;;;;4916751;29;20192;-68
2022/03/13 05:50:30;;;;;;;2.77;0.97;;;25.80;99.90;;;;;;4917339;29;20210;-69
2022/03/13 05:52:57;;;;;;;5.47;1.27;;;25.90;99.90;;;;;;4915187;29;20190;-69
2022/03/13 05:55:26;;;;;;;2.93;1.07;;;26.00;99.90;;;;;;4916384;29;20181;-70
2022/03/13 05:57:57;;;;;;;3.03;1.10;;;26.20;99.90;;;;;;4916222;29;20185;-70
2022/03/13 06:00:25;;;;;;;4.00;1.03;;;26.40;99.90;;;;;;4916238;29;20185;-70
2022/03/13 06:02:54;;;;;;;4.37;1.30;;;26.00;99.90;;;;;;4915740;29;20277;-70
2022/03/13 06:05:22;;;;;;;4.33;1.27;;;25.90;99.90;;;;;;4916374;29;20745;-69
2022/03/13 06:07:50;;;;;;;4.87;1.17;;;25.60;99.90;;;;;;4916444;29;20180;-69
2022/03/13 06:10:18;;;;;;;3.23;0.77;;;25.40;99.90;;;;;;4916438;29;20667;-69
2022/03/13 06:12:46;;;;;;;4.97;0.90;;;25.20;99.90;;;;;;4915751;29;20644;-69
2022/03/13 06:15:14;;;;;;;3.57;0.73;;;24.70;99.90;;;;;;4915224;29;20185;-69
2022/03/13 06:17:48;;;;;;;3.30;0.90;;;24.40;99.90;;;;;;4916097;29;20204;-68
2022/03/13 06:20:17;;;;;;;4.83;1.07;;;24.20;99.90;;;;;;4916250;29;20185;-69
2022/03/13 06:22:46;;;;;;;5.27;1.17;;;24.40;99.90;;;;;;4916020;29;20199;-70
2022/03/13 06:25:15;;;;;;;3.00;0.90;;;24.60;99.90;;;;;;4915975;29;20209;-69
2022/03/13 06:27:43;;;;;;;3.40;1.00;;;24.90;99.90;;;;;;4916266;29;20232;-69
2022/03/13 06:30:14;;;;;;;2.03;0.90;;;25.00;99.90;;;;;;4916108;29;20189;-69
2022/03/13 06:32:44;;;;;;;3.43;1.30;;;25.20;99.90;;;;;;4916032;29;20623;-69
2022/03/13 06:35:12;;;;;;;2.23;1.17;;;25.30;99.90;;;;;;4915500;29;20212;-69
2022/03/13 06:37:40;;;;;;;2.87;0.77;;;25.40;99.90;;;;;;4913162;29;20283;-69
2022/03/13 06:40:09;;;;;;;3.03;0.70;;;25.80;99.90;;;;;;4915431;29;20240;-69
2022/03/13 06:42:40;;;;;;;4.73;1.10;;;25.90;99.90;;;;;;4915667;29;20655;-69
2022/03/13 06:45:10;;;;;;;2.57;0.83;;;25.80;99.90;;;;;;4915113;29;20661;-69
2022/03/13 06:47:46;;;;;;;3.43;0.70;;;25.70;99.90;;;;;;4915727;29;20623;-69
2022/03/13 06:50:15;;;;;;;3.37;0.83;;;25.80;99.90;;;;;;4913930;29;20638;-69
2022/03/13 06:52:44;;;;;;;6.80;1.00;;;26.00;99.90;;;;;;4913696;29;20288;-69
2022/03/13 06:55:13;;;;;;;1.50;0.80;;;25.90;99.90;;;;;;4913906;29;20230;-70
2022/03/13 06:57:44;;;;;;;3.53;1.13;;;25.70;99.90;;;;;;4914751;29;20192;-70
2022/03/13 07:00:15;;;;;;;1.93;1.00;;;25.70;99.90;;;;;;4915212;29;20189;-70
2022/03/13 07:02:42;;;;;;;3.87;0.87;;;25.40;99.90;;;;;;4913927;29;20223;-70
2022/03/13 07:05:10;;;;;;;4.13;1.07;;;25.70;99.90;;;;;;4915279;29;20208;-69
2022/03/13 07:07:37;;;;;;;2.63;0.77;;;25.50;99.90;;;;;;4915569;29;20228;-70
2022/03/13 07:10:14;;;;;;;4.10;1.13;;;25.50;99.90;;;;;;4915567;29;20181;-69
2022/03/13 07:12:44;;;;;;;5.03;1.20;;;25.70;99.90;;;;;;4915452;29;20636;-69
2022/03/13 07:15:13;;;;;;;2.60;0.97;;;25.30;99.90;;;;;;4918911;29;20284;-70
2022/03/13 07:17:42;;;;;;;4.53;0.90;;;24.80;99.90;;;;;;4919501;29;20185;-70
2022/03/13 07:20:10;;;;;;;4.50;0.90;;;24.60;99.90;;;;;;4919351;29;20182;-68
2022/03/13 07:22:38;;;;;;;3.20;0.80;;;24.40;99.90;;;;;;4919280;29;20177;-69
2022/03/13 07:25:06;;;;;;;1.97;0.90;;;24.20;99.90;;;;;;4917945;29;20271;-69
2022/03/13 07:27:33;;;;;;;1.90;0.83;;;24.20;99.90;;;;;;4919161;29;20556;-69
2022/03/13 07:30:00;;;;;;;3.03;0.90;;;23.80;99.90;;;;;;4919296;29;20820;-69
2022/03/13 07:32:28;;;;;;;3.07;0.80;;;23.60;99.90;;;;;;4918371;29;20192;-69
2022/03/13 07:34:55;;;;;;;1.53;0.53;;;23.50;99.90;;;;;;4919214;29;20211;-69
2022/03/13 07:37:22;;;;;;;1.77;0.70;;;23.40;99.90;;;;;;4918418;29;20204;-69
2022/03/13 07:39:50;;;;;;;1.93;0.63;;;23.30;99.90;;;;;;4918946;29;20195;-69
2022/03/13 07:42:17;;;;;;;5.13;0.63;;;23.30;99.90;;;;;;4919003;29;20685;-69
2022/03/13 07:44:45;;;;;;;4.27;0.67;;;23.30;99.90;;;;;;4919017;29;20236;-69
2022/03/13 07:47:12;;;;;;;4.13;0.60;;;23.10;99.90;;;;;;4918814;29;20214;-69
2022/03/13 07:49:40;;;;;;;4.33;0.93;;;23.10;99.90;;;;;;4919059;29;20212;-69
2022/03/13 07:52:07;;;;;;;3.53;0.80;;;23.10;99.90;;;;;;4918798;29;20177;-68
2022/03/13 07:54:35;;;;;;;2.53;0.70;;;23.00;99.90;;;;;;4918897;29;20188;-70
2022/03/13 07:57:04;;;;;;;7.33;1.43;;;22.90;99.90;;;;;;4918756;29;20220;-69
2022/03/13 07:59:32;;;;;;;2.37;0.90;;;22.80;99.90;;;;;;4919119;29;20284;-69
2022/03/13 08:02:00;;;;;;;3.17;0.90;;;22.70;99.90;;;;;;4918524;29;20235;-69
2022/03/13 08:04:28;;;;;;;3.73;1.10;;;22.70;99.90;;;;;;4918266;29;20197;-69
2022/03/13 08:06:56;;;;;;;4.13;1.00;;;22.70;99.90;;;;;;4918560;29;20227;-69
2022/03/13 08:09:23;;;;;;;1.83;0.87;;;22.60;99.90;;;;;;4918580;29;20191;-69
2022/03/13 08:11:53;;;;;;;4.60;0.93;;;22.50;99.90;;;;;;4918324;29;20181;-69
2022/03/13 08:14:21;;;;;;;3.60;0.80;;;22.40;99.90;;;;;;4918268;29;20192;-70
2022/03/13 08:16:49;;;;;;;3.73;1.10;;;22.40;99.90;;;;;;4918244;29;20193;-70
2022/03/13 08:19:17;;;;;;;4.70;1.00;;;22.30;99.90;;;;;;4918636;29;20189;-68
2022/03/13 08:21:45;;;;;;;7.20;1.47;;;22.20;99.90;;;;;;4917517;29;20202;-70
2022/03/13 08:24:15;;;;;;;1.83;0.70;;;22.20;99.90;;;;;;4919265;29;20666;-70
2022/03/13 08:26:43;;;;;;;1.47;0.73;;;22.20;99.90;;;;;;4918847;29;20221;-71
2022/03/13 08:29:11;;;;;;;3.73;0.87;;;22.10;99.90;;;;;;4918624;29;20182;-70
2022/03/13 08:31:39;;;;;;;2.20;0.90;;;22.00;99.90;;;;;;4919140;29;20282;-71
2022/03/13 08:34:08;;;;;;;2.63;1.10;;;22.00;99.90;;;;;;4919109;29;20180;-71
2022/03/13 08:36:38;;;;;;;2.70;0.80;;;22.00;99.90;;;;;;4919347;29;20191;-71
2022/03/13 08:39:06;;;;;;;3.60;1.10;;;22.00;99.90;;;;;;4919346;29;20216;-71
2022/03/13 08:41:35;;;;;;;3.27;1.20;;;21.90;99.90;;;;;;4918977;29;20695;-71
2022/03/13 08:44:03;;;;;;;1.40;1.07;;;21.90;99.90;;;;;;4919492;29;20715;-71
2022/03/13 08:46:31;;;;;;;2.37;1.00;;;21.90;99.90;;;;;;4919127;29;20216;-71
2022/03/13 08:48:58;;;;;;;1.53;0.90;;;21.80;99.90;;;;;;4918704;29;20244;-71
2022/03/13 08:51:27;;;;;;;5.97;1.50;;;21.90;99.90;;;;;;4918937;29;20198;-71
2022/03/13 08:53:56;;;;;;;5.63;1.07;;;21.90;99.90;;;;;;4918138;29;20218;-69
2022/03/13 08:56:24;;;;;;;4.43;1.00;;;21.90;99.90;;;;;;4918281;29;20187;-70
2022/03/13 08:58:53;;;;;;;8.70;1.60;;;21.90;99.90;;;;;;4918439;29;20191;-70
2022/03/13 09:01:22;;;;;;;6.97;1.20;;;21.90;99.90;;;;;;4917625;29;20824;-70
2022/03/13 09:03:50;;;;;;;5.60;1.10;;;21.80;99.90;;;;;;4917921;29;20185;-70
2022/03/13 09:06:18;;;;;;;4.30;1.20;;;21.80;99.90;;;;;;4917987;29;20217;-70
2022/03/13 09:08:46;;;;;;;3.50;0.80;;;21.80;99.90;;;;;;4916083;29;20181;-69
2022/03/13 09:11:25;;;;;;;2.80;0.90;;;21.80;99.90;;;;;;4918206;29;20255;-71
2022/03/13 09:13:53;;;;;;;2.70;0.93;;;21.70;99.90;;;;;;4918698;29;20193;-69
2022/03/13 09:16:21;;;;;;;4.17;1.10;;;21.80;99.90;;;;;;4918539;29;20347;-69
2022/03/13 09:18:48;;;;;;;2.53;0.87;;;21.80;99.90;;;;;;4918806;29;20260;-70
2022/03/13 09:21:16;;;;;;;3.43;1.10;;;21.70;99.90;;;;;;4918381;29;20173;-70
2022/03/13 09:23:44;;;;;;;8.17;1.70;;;21.70;99.90;;;;;;4918524;29;20177;-70
2022/03/13 09:26:11;;;;;;;5.80;1.40;;;21.70;99.90;;;;;;4918425;29;20276;-69
2022/03/13 09:28:39;;;;;;;5.83;1.03;;;21.70;99.90;;;;;;4917638;29;20181;-69
2022/03/13 09:31:08;;;;;;;3.70;1.13;;;21.70;99.90;;;;;;4917893;29;20196;-69
2022/03/13 09:34:15;;;;;;;1.70;0.83;;;21.80;99.90;;;;;;4916967;29;20204;-68
2022/03/13 09:36:43;;;;;;;4.47;1.00;;;21.80;99.90;;;;;;4916899;29;20197;-68
2022/03/13 09:39:11;;;;;;;5.33;1.20;;;21.80;99.90;;;;;;4917621;29;20183;-67
2022/03/13 09:41:38;;;;;;;4.67;1.40;;;21.80;99.90;;;;;;4916315;29;20695;-70
2022/03/13 09:44:08;;;;;;;4.67;1.27;;;21.80;99.90;;;;;;4916496;29;20188;-69
2022/03/13 09:46:39;;;;;;;2.77;1.30;;;21.80;99.90;;;;;;4917827;29;20220;-70
2022/03/13 09:49:07;;;;;;;2.43;0.90;;;21.80;99.90;;;;;;4917503;29;20233;-70
2022/03/13 09:51:35;;;;;;;4.03;1.07;;;21.70;99.90;;;;;;4917729;29;20185;-71
2022/03/13 09:54:03;;;;;;;2.30;0.77;;;21.70;99.90;;;;;;4918097;29;20186;-70
2022/03/13 09:56:33;;;;;;;4.63;1.33;;;21.60;99.90;;;;;;4917262;29;20264;-70
2022/03/13 09:59:00;;;;;;;7.13;1.20;;;21.60;99.90;;;;;;4917772;29;20178;-71
2022/03/13 10:01:28;;;;;;;3.63;0.87;;;21.60;99.90;;;;;;4916248;29;20251;-70
2022/03/13 10:03:56;;;;;;;11.07;1.63;;;21.60;99.90;;;;;;4916303;29;20657;-69
2022/03/13 10:06:25;;;;;;;4.10;1.30;;;21.50;99.90;;;;;;4917004;29;20283;-70
2022/03/13 10:08:52;;;;;;;3.23;1.07;;;21.50;99.90;;;;;;4917889;29;20647;-70
2022/03/13 10:11:34;;;;;;;3.50;1.20;;;21.50;99.90;;;;;;4917484;29;20204;-71
2022/03/13 10:14:10;;;;;;;2.70;1.20;;;21.40;99.90;;;;;;4914855;29;20553;-69
2022/03/13 10:16:40;;;;;;;4.77;1.00;;;21.40;99.90;;;;;;4916811;29;20181;-71
2022/03/13 10:19:16;;;;;;;3.70;1.23;;;21.40;99.90;;;;;;4915912;29;20188;-70
2022/03/13 10:22:07;;;;;;;3.27;1.27;;;21.40;99.90;;;;;;4917495;29;20183;-70
2022/03/13 10:24:46;;;;;;;4.40;1.27;;;21.30;99.90;;;;;;4917192;29;20185;-70
2022/03/13 10:27:20;;;;;;;3.77;1.20;;;21.40;99.90;;;;;;4917361;29;20240;-70
2022/03/13 10:29:48;;;;;;;2.87;0.90;;;21.30;99.90;;;;;;4917332;29;20199;-69
2022/03/13 10:32:16;;;;;;;4.43;1.30;;;21.30;99.90;;;;;;4917263;29;20188;-69
2022/03/13 10:34:57;;;;;;;6.83;1.70;;;21.30;99.90;;;;;;4917080;29;20551;-68
2022/03/13 10:37:39;;;;;;;4.40;1.27;;;21.30;99.90;;;;;;4917358;29;20177;-68
2022/03/13 10:40:10;;;;;;;4.73;1.03;;;21.20;99.90;;;;;;4917259;29;20169;-68
2022/03/13 10:42:43;;;;;;;2.80;1.00;;;21.20;99.90;;;;;;4917308;29;20639;-69
2022/03/13 10:45:15;;;;;;;4.90;1.13;;;21.30;99.90;;;;;;4916775;29;20185;-68
2022/03/13 10:47:43;;;;;;;4.67;1.37;;;21.20;99.90;;;;;;4917674;29;20183;-69
2022/03/13 10:50:11;;;;;;;3.80;1.00;;;21.20;99.90;;;;;;4917025;29;20548;-70
2022/03/13 10:52:42;;;;;;;4.77;1.10;;;21.10;99.90;;;;;;4916731;29;20199;-70
2022/03/13 10:55:28;;;;;;;3.90;1.10;;;21.10;99.90;;;;;;4916571;29;20222;-68
2022/03/13 10:58:00;;;;;;;4.53;1.20;;;21.10;99.90;;;;;;4917308;29;20188;-70
2022/03/13 11:00:28;;;;;;;6.63;1.20;;;21.00;99.90;;;;;;4916681;29;20181;-70
2022/03/13 11:03:10;;;;;;;3.80;1.07;;;21.00;99.90;;;;;;4916963;29;20205;-70
2022/03/13 11:05:39;;;;;;;9.83;1.47;;;20.90;99.90;;;;;;4916949;29;20209;-68
2022/03/13 11:08:07;;;;;;;1.83;1.10;;;20.90;99.90;;;;;;4917081;29;20542;-70
2022/03/13 11:10:38;;;;;;;6.80;1.30;;;20.80;99.90;;;;;;4917206;29;20209;-72
2022/03/13 11:13:06;;;;;;;6.40;1.70;;;20.80;99.90;;;;;;4916727;29;20181;-70
2022/03/13 11:15:38;;;;;;;1.53;0.90;;;20.70;99.90;;;;;;4916616;29;20714;-70
2022/03/13 11:18:16;;;;;;;1.97;0.80;;;20.60;99.90;;;;;;4916748;29;20194;-70
2022/03/13 11:20:46;;;;;;;3.80;1.07;;;20.60;99.90;;;;;;4916777;29;20192;-69
2022/03/13 11:23:14;;;;;;;4.07;1.20;;;20.60;99.90;;;;;;4917254;29;20232;-70
2022/03/13 11:25:43;;;;;;;4.57;1.27;;;20.60;99.90;;;;;;4916381;29;20253;-69
2022/03/13 11:28:11;;;;;;;4.83;1.13;;;20.60;99.90;;;;;;4916796;29;20544;-69
2022/03/13 11:30:39;;;;;;;3.03;0.90;;;20.50;99.90;;;;;;4916814;29;20177;-71
2022/03/13 11:33:08;;;;;;;5.80;1.30;;;20.50;99.90;;;;;;4915503;29;20220;-70
2022/03/13 11:35:35;;;;;;;2.40;1.10;;;20.50;99.90;;;;;;4916523;29;20178;-71
2022/03/13 11:38:06;;;;;;;6.13;1.33;;;20.50;99.90;;;;;;4916453;29;20196;-70
2022/03/13 11:40:39;;;;;;;5.47;1.23;;;20.40;99.90;;;;;;4916680;29;20219;-70
2022/03/13 11:43:08;;;;;;;3.73;1.00;;;20.40;99.90;;;;;;4916820;29;20188;-70
2022/03/13 11:45:39;;;;;;;6.37;1.40;;;20.40;99.90;;;;;;4916447;29;20225;-72
2022/03/13 11:48:22;;;;;;;3.20;0.93;;;20.20;99.90;;;;;;4916455;29;20244;-68
2022/03/13 11:51:04;;;;;;;7.13;1.33;;;20.20;99.90;;;;;;4916738;29;20182;-70
2022/03/13 11:53:44;;;;;;;5.30;1.33;;;20.10;99.90;;;;;;4916472;29;20618;-70
2022/03/13 11:56:27;;;;;;;4.23;1.30;;;20.10;99.90;;;;;;4916361;29;20248;-71
2022/03/13 11:58:58;;;;;;;3.40;1.00;;;20.10;99.90;;;;;;4916563;29;20171;-71
2022/03/13 12:01:37;;;;;;;6.10;1.80;;;20.00;99.90;;;;;;4919938;29;20739;-71
2022/03/13 12:04:05;;;;;;;9.87;1.60;;;20.00;99.90;;;;;;4919616;29;20188;-69
2022/03/13 12:06:44;;;;;;;6.03;1.47;;;19.90;99.90;;;;;;4919546;29;20223;-71
2022/03/13 12:09:16;;;;;;;3.07;1.13;;;19.90;99.90;;;;;;4919284;29;20553;-70
2022/03/13 12:11:47;;;;;;;4.87;2.10;;;19.90;99.90;;;;;;4919691;29;20181;-71
2022/03/13 12:14:16;;;;;;;3.17;1.10;;;19.80;99.90;;;;;;4919675;29;20644;-70
2022/03/13 12:16:46;;;;;;;3.67;1.40;;;19.70;99.90;;;;;;4918021;29;20205;-69
2022/03/13 12:19:19;;;;;;;4.70;1.37;;;19.70;99.90;;;;;;4919582;29;20181;-70
2022/03/13 12:21:47;;;;;;;2.93;1.10;;;19.50;99.90;;;;;;4919724;29;20185;-71
2022/03/13 12:24:18;;;;;;;4.77;1.23;;;19.50;99.90;;;;;;4919699;29;20178;-71
2022/03/13 12:26:53;;;;;;;5.73;1.40;;;19.40;99.90;;;;;;4918861;29;20246;-71
2022/03/13 12:29:20;;;;;;;3.37;1.13;;;19.30;99.90;;;;;;4900656;29;20181;-70
2022/03/13 12:31:51;;;;;;;5.03;1.00;;;19.30;99.90;;;;;;4900728;29;20550;-70
2022/03/13 12:34:31;;;;;;;3.27;1.20;;;19.20;99.90;;;;;;4900741;29;20274;-70
2022/03/13 12:37:09;;;;;;;4.73;1.30;;;19.20;99.90;;;;;;4918094;29;20205;-71
2022/03/13 12:39:58;;;;;;;3.60;1.20;;;19.20;99.90;;;;;;4919073;29;20191;-69
2022/03/13 12:42:30;;;;;;;3.60;0.93;;;19.10;99.90;;;;;;4919341;29;20182;-70
2022/03/13 12:45:06;;;;;;;3.27;1.00;;;19.10;99.90;;;;;;4917498;29;20189;-70
2022/03/13 12:47:36;;;;;;;4.57;1.40;;;19.00;99.90;;;;;;4919365;29;20608;-70
2022/03/13 12:50:05;;;;;;;4.90;1.50;;;19.00;99.90;;;;;;4918928;29;20191;-70
2022/03/13 12:52:34;;;;;;;4.30;1.10;;;19.00;99.90;;;;;;4919158;29;20178;-70
2022/03/13 12:55:08;;;;;;;4.43;1.37;;;19.00;99.90;;;;;;4918852;29;20185;-70
2022/03/13 12:57:37;;;;;;;4.97;1.47;;;18.90;99.90;;;;;;4918906;29;20174;-70
2022/03/13 13:00:07;;;;;;;4.73;1.60;;;18.90;99.90;;;;;;4917160;29;20272;-70
2022/03/13 13:02:36;;;;;;;7.53;1.67;;;18.80;99.90;;;;;;4918769;29;20232;-67